Time;durP1;ratioP1;P1;durP2;ratioP2;P2;SDS_P1;SDS_P2;PMS_P1;PMS_P2;Temp;Humidity;BMP_temperature;BMP_pressure;BME280_temperature;BME280_humidity;BME280_pressure;Samples;Min_cycle;Max_cycle;Signal;HPM_P1;HPM_P2
2023/09/14 00:01:49;;;;;;;23.00;20.90;;;;;;;18.82;100.00;97844.91;107301;1272;25671;-82
2023/09/14 00:04:17;;;;;;;24.00;22.00;;;;;;;18.83;100.00;97844.77;107300;1272;25233;-84
2023/09/14 00:06:45;;;;;;;19.70;17.80;;;;;;;18.83;100.00;97841.04;107212;1275;22535;-84
2023/09/14 00:09:13;;;;;;;20.10;18.00;;;;;;;18.84;100.00;97838.45;107262;1275;22638;-83
2023/09/14 00:11:41;;;;;;;17.60;15.60;;;;;;;18.85;100.00;97837.87;107277;1260;24327;-83
2023/09/14 00:14:09;;;;;;;16.30;14.70;;;;;;;18.84;100.00;97839.58;107177;1270;22570;-83
2023/09/14 00:16:37;;;;;;;16.10;14.50;;;;;;;18.81;100.00;97838.16;107294;1275;24266;-83
2023/09/14 00:19:06;;;;;;;16.10;14.40;;;;;;;18.74;100.00;97831.91;107289;1269;22548;-84
2023/09/14 00:21:35;;;;;;;17.30;15.00;;;;;;;18.71;100.00;97836.55;107342;1275;22822;-84
2023/09/14 00:24:04;;;;;;;17.20;15.50;;;;;;;18.67;100.00;97832.96;107270;1275;22547;-83
2023/09/14 00:26:32;;;;;;;15.60;14.00;;;;;;;18.63;100.00;97826.47;107329;1275;24237;-80
2023/09/14 00:29:00;;;;;;;14.30;12.90;;;;;;;18.60;100.00;97826.02;106995;1275;22647;-80
2023/09/14 00:31:28;;;;;;;16.00;14.40;;;;;;;18.56;100.00;97826.54;107201;1275;192422;-82
2023/09/14 00:33:56;;;;;;;15.30;13.80;;;;;;;18.54;100.00;97827.74;107316;1275;22592;-82
2023/09/14 00:36:25;;;;;;;13.50;12.30;;;;;;;18.51;100.00;97832.50;107298;1275;22724;-81
2023/09/14 00:38:53;;;;;;;13.50;11.40;;;;;;;18.49;100.00;97833.56;107260;1275;25453;-81
2023/09/14 00:41:21;;;;;;;10.00;9.10;;;;;;;18.46;100.00;97835.81;107324;1275;22584;-82
2023/09/14 00:43:50;;;;;;;9.10;8.00;;;;;;;18.41;100.00;97838.10;107174;1275;22535;-84
2023/09/14 00:46:18;;;;;;;7.40;6.40;;;;;;;18.28;100.00;97838.23;107297;1272;25362;-82
2023/09/14 00:48:47;;;;;;;5.70;5.00;;;;;;;18.17;100.00;97836.73;107558;1274;22572;-80
2023/09/14 00:51:16;;;;;;;7.20;5.00;;;;;;;18.00;100.00;97840.77;107588;1275;22636;-79
2023/09/14 00:53:45;;;;;;;7.90;4.90;;;;;;;17.89;100.00;97842.66;107443;1269;22704;-79
2023/09/14 00:56:13;;;;;;;7.80;4.50;;;;;;;17.83;100.00;97840.55;107263;1271;22568;-79
2023/09/14 00:58:41;;;;;;;5.90;3.70;;;;;;;17.74;100.00;97836.55;107329;1267;22766;-79
2023/09/14 01:01:10;;;;;;;4.10;3.20;;;;;;;17.69;100.00;97843.11;106929;1271;25233;-78
2023/09/14 01:03:38;;;;;;;5.40;4.10;;;;;;;17.60;100.00;97838.17;107267;1275;22727;-78
2023/09/14 01:06:06;;;;;;;4.40;3.90;;;;;;;17.54;100.00;97839.80;107295;1275;24231;-78
2023/09/14 01:08:35;;;;;;;5.90;3.80;;;;;;;17.51;100.00;97840.58;107245;1275;22737;-78
2023/09/14 01:11:03;;;;;;;6.00;4.20;;;;;;;17.49;100.00;97838.02;107303;1275;25403;-78
2023/09/14 01:13:59;;;;;;;6.40;3.80;;;;;;;17.43;100.00;97834.44;107296;1263;22633;-79
2023/09/14 01:16:35;;;;;;;4.90;3.50;;;;;;;17.39;100.00;97835.96;107285;1275;24965;-79
2023/09/14 01:19:28;;;;;;;5.00;4.10;;;;;;;17.43;100.00;97833.42;107290;1275;22542;-79
2023/09/14 01:22:23;;;;;;;4.30;3.60;;;;;;;17.43;100.00;97829.98;106950;1275;24188;-79
2023/09/14 01:25:10;;;;;;;5.40;4.10;;;;;;;17.45;100.00;97831.61;106995;1275;22520;-80
2023/09/14 01:27:38;;;;;;;5.90;3.80;;;;;;;17.55;100.00;97834.52;107211;1275;25390;-80
2023/09/14 01:30:07;;;;;;;6.10;4.20;;;;;;;17.61;100.00;97830.73;107334;1275;22481;-80
2023/09/14 01:32:35;;;;;;;5.20;4.20;;;;;;;17.71;100.00;97830.23;107219;1275;23061;-80
2023/09/14 01:35:05;;;;;;;19.50;4.90;;;;;;;17.77;100.00;97831.64;107320;1275;22814;-80
2023/09/14 01:37:33;;;;;;;6.40;4.60;;;;;;;17.79;100.00;97831.19;107255;1275;22516;-79
2023/09/14 01:40:06;;;;;;;7.10;3.90;;;;;;;17.84;100.00;97831.08;107276;1275;22570;-80
2023/09/14 01:42:36;;;;;;;5.90;4.60;;;;;;;17.91;100.00;97825.50;107264;1254;22524;-80
2023/09/14 01:45:05;;;;;;;6.60;4.40;;;;;;;17.92;100.00;97826.70;107200;1275;25466;-80
2023/09/14 01:47:33;;;;;;;12.60;5.60;;;;;;;17.92;100.00;97828.73;107383;1275;23228;-80
2023/09/14 01:50:01;;;;;;;8.30;4.80;;;;;;;17.96;100.00;97827.69;107277;1275;22572;-80
2023/09/14 01:52:30;;;;;;;6.10;4.50;;;;;;;18.02;100.00;97828.05;107406;1275;24357;-80
2023/09/14 01:54:58;;;;;;;9.10;4.70;;;;;;;18.09;100.00;97828.25;107250;1275;24317;-80
2023/09/14 01:57:26;;;;;;;8.10;4.80;;;;;;;18.14;100.00;97832.52;107165;1275;22640;-80
2023/09/14 01:59:54;;;;;;;6.20;4.80;;;;;;;18.18;100.00;97830.66;107133;1275;24644;-80
2023/09/14 02:02:25;;;;;;;9.00;4.80;;;;;;;18.20;100.00;97832.66;107177;1275;26568;-80
2023/09/14 02:04:53;;;;;;;5.30;4.30;;;;;;;18.25;100.00;97834.56;107352;1275;22631;-81
2023/09/14 02:07:21;;;;;;;8.10;4.70;;;;;;;18.33;100.00;97836.67;107420;1275;24350;-80
2023/09/14 02:09:51;;;;;;;7.40;4.80;;;;;;;18.36;100.00;97839.23;107220;1275;22535;-80
2023/09/14 02:12:20;;;;;;;8.20;4.00;;;;;;;18.35;100.00;97842.33;107244;1275;24010;-79
2023/09/14 02:14:48;;;;;;;6.80;4.20;;;;;;;18.39;100.00;97846.63;107017;1275;22831;-79
2023/09/14 02:17:17;;;;;;;5.10;4.00;;;;;;;18.40;100.00;97846.97;107223;1275;22528;-79
2023/09/14 02:19:45;;;;;;;7.80;4.30;;;;;;;18.37;100.00;97852.42;107141;1275;22653;-79
2023/09/14 02:22:13;;;;;;;5.40;4.10;;;;;;;18.34;100.00;97856.46;107245;1275;22658;-80
2023/09/14 02:24:41;;;;;;;7.40;4.10;;;;;;;18.30;100.00;97860.73;107401;1275;22582;-80
2023/09/14 02:27:10;;;;;;;5.10;3.70;;;;;;;18.19;100.00;97861.23;107345;1275;25628;-80
2023/09/14 02:29:38;;;;;;;5.50;3.60;;;;;;;18.05;100.00;97859.77;107309;1275;22541;-79
2023/09/14 02:32:07;;;;;;;4.20;3.50;;;;;;;17.94;100.00;97865.70;107235;1275;24256;-79
2023/09/14 02:34:35;;;;;;;6.80;3.50;;;;;;;17.83;100.00;97866.56;107344;1275;25339;-79
2023/09/14 02:37:04;;;;;;;7.20;3.50;;;;;;;17.80;100.00;97865.30;107192;1275;22874;-79
2023/09/14 02:39:32;;;;;;;8.50;3.80;;;;;;;17.82;100.00;97863.81;107246;1275;22535;-79
2023/09/14 02:42:00;;;;;;;7.70;3.70;;;;;;;17.91;100.00;97863.60;107208;1275;22622;-79
2023/09/14 02:44:28;;;;;;;8.00;3.30;;;;;;;17.96;100.00;97862.19;107199;1275;22533;-79
2023/09/14 02:46:56;;;;;;;4.90;3.30;;;;;;;18.02;100.00;97865.46;107349;1275;22640;-79
2023/09/14 02:49:24;;;;;;;4.30;3.00;;;;;;;17.98;100.00;97866.11;107304;1275;22590;-78
2023/09/14 02:51:53;;;;;;;5.40;3.40;;;;;;;17.86;100.00;97866.67;107291;1275;25220;-78
2023/09/14 02:54:21;;;;;;;5.10;3.20;;;;;;;17.80;100.00;97871.09;107206;1275;22531;-78
2023/09/14 02:56:49;;;;;;;4.10;3.00;;;;;;;17.76;100.00;97869.48;107334;1275;25472;-78
2023/09/14 02:59:18;;;;;;;4.80;2.90;;;;;;;17.70;100.00;97875.14;107290;1275;22603;-78
2023/09/14 03:01:49;;;;;;;6.40;3.00;;;;;;;17.69;100.00;97875.73;107221;1275;24237;-78
2023/09/14 03:04:18;;;;;;;3.40;2.90;;;;;;;17.72;100.00;97875.81;107381;1275;22731;-78
2023/09/14 03:06:48;;;;;;;5.50;3.10;;;;;;;17.75;100.00;97877.06;107425;1275;23619;-80
2023/09/14 03:09:16;;;;;;;4.20;2.90;;;;;;;17.75;100.00;97878.70;107702;1259;22632;-80
2023/09/14 03:11:44;;;;;;;6.60;3.50;;;;;;;17.80;100.00;97880.65;107673;1275;22540;-79
2023/09/14 03:14:12;;;;;;;6.20;3.80;;;;;;;17.83;100.00;97878.02;107338;1257;25377;-79
2023/09/14 03:16:40;;;;;;;5.00;3.50;;;;;;;17.79;100.00;97880.54;107347;1275;24347;-79
2023/09/14 03:19:09;;;;;;;4.70;2.90;;;;;;;17.80;100.00;97880.72;107297;1275;22558;-80
2023/09/14 03:21:37;;;;;;;4.90;2.90;;;;;;;17.83;100.00;97882.62;107324;1275;25563;-80
2023/09/14 03:24:05;;;;;;;5.10;2.90;;;;;;;17.82;100.00;97884.21;107208;1275;25492;-80
2023/09/14 03:26:33;;;;;;;4.70;2.80;;;;;;;17.80;100.00;97881.98;107205;1275;25293;-80
2023/09/14 03:29:01;;;;;;;4.70;3.20;;;;;;;17.77;100.00;97883.81;107185;1275;23347;-80
2023/09/14 03:31:29;;;;;;;6.10;3.50;;;;;;;17.71;100.00;97880.92;107392;1275;25536;-80
2023/09/14 03:33:58;;;;;;;4.60;3.60;;;;;;;17.66;100.00;97883.96;107278;1275;22629;-79
2023/09/14 03:36:27;;;;;;;6.50;3.70;;;;;;;17.59;100.00;97885.71;107418;1275;23901;-80
2023/09/14 03:38:58;;;;;;;6.40;3.80;;;;;;;17.58;100.00;97889.02;107351;1269;22633;-80
2023/09/14 03:41:31;;;;;;;5.70;3.50;;;;;;;17.57;100.00;97893.05;107029;1275;25334;-80
2023/09/14 03:44:00;;;;;;;6.40;4.00;;;;;;;17.55;100.00;97897.95;107296;1275;22904;-80
2023/09/14 03:46:29;;;;;;;5.80;3.90;;;;;;;17.52;100.00;97901.38;107270;1275;22520;-80
2023/09/14 03:48:57;;;;;;;6.30;4.20;;;;;;;17.53;100.00;97902.35;107215;1275;25367;-80
2023/09/14 03:51:27;;;;;;;5.20;3.40;;;;;;;17.56;100.00;97905.56;107230;1275;22525;-80
2023/09/14 03:53:55;;;;;;;4.00;3.30;;;;;;;17.65;100.00;97909.17;107251;1275;25511;-79
2023/09/14 03:56:23;;;;;;;5.10;3.10;;;;;;;17.68;100.00;97914.77;107422;1274;22545;-80
2023/09/14 03:58:51;;;;;;;5.20;3.40;;;;;;;17.71;100.00;97911.36;106987;1275;22543;-80
2023/09/14 04:01:19;;;;;;;4.20;3.30;;;;;;;17.76;100.00;97919.45;107141;1275;22629;-79
2023/09/14 04:03:48;;;;;;;5.00;3.50;;;;;;;17.85;100.00;97916.14;106938;1275;22714;-80
2023/09/14 04:06:16;;;;;;;6.40;3.70;;;;;;;17.95;100.00;97917.30;107136;1275;22530;-79
2023/09/14 04:08:44;;;;;;;5.20;3.60;;;;;;;18.06;100.00;97917.61;106935;1275;22524;-80
2023/09/14 04:11:13;;;;;;;6.90;3.70;;;;;;;18.13;100.00;97918.41;107243;1275;22531;-80
2023/09/14 04:13:41;;;;;;;5.60;3.80;;;;;;;18.11;100.00;97921.24;107297;1275;25518;-79
2023/09/14 04:16:09;;;;;;;7.00;4.30;;;;;;;18.12;100.00;97922.15;107186;1275;26616;-80
2023/09/14 04:18:40;;;;;;;4.90;3.80;;;;;;;18.17;100.00;97920.55;107153;1275;22532;-80
2023/09/14 04:21:08;;;;;;;4.70;3.40;;;;;;;18.17;100.00;97922.20;107143;1275;22574;-80
2023/09/14 04:23:37;;;;;;;4.50;3.80;;;;;;;18.23;100.00;97922.73;107316;1275;25593;-81
2023/09/14 04:26:09;;;;;;;9.60;5.20;;;;;;;18.23;100.00;97923.90;107197;1273;22542;-81
2023/09/14 04:28:38;;;;;;;6.20;4.60;;;;;;;18.16;100.00;97924.05;107261;1275;22576;-80
2023/09/14 04:31:09;;;;;;;7.90;5.10;;;;;;;18.10;100.00;97922.09;107190;1275;22560;-80
2023/09/14 04:33:38;;;;;;;7.60;5.10;;;;;;;17.98;100.00;97926.95;107369;1275;25406;-80
2023/09/14 04:36:06;;;;;;;7.20;4.90;;;;;;;17.89;100.00;97929.83;107186;1275;24346;-80
2023/09/14 04:38:36;;;;;;;7.10;6.10;;;;;;;17.79;100.00;97929.53;107279;1275;22586;-80
2023/09/14 04:41:04;;;;;;;9.80;6.60;;;;;;;17.72;100.00;97929.85;107289;1275;22637;-80
2023/09/14 04:43:33;;;;;;;8.70;7.40;;;;;;;17.69;100.00;97930.49;107283;1275;22560;-80
2023/09/14 04:46:04;;;;;;;9.20;7.90;;;;;;;17.63;100.00;97933.58;107185;1275;22622;-80
2023/09/14 04:48:33;;;;;;;9.60;8.70;;;;;;;17.60;100.00;97930.58;107238;1275;25361;-81
2023/09/14 04:51:02;;;;;;;11.80;9.90;;;;;;;17.55;100.00;97932.92;107155;1275;26525;-81
2023/09/14 04:53:30;;;;;;;12.20;10.40;;;;;;;17.47;100.00;97936.20;107003;1275;24225;-80
2023/09/14 04:55:59;;;;;;;13.00;10.50;;;;;;;17.43;100.00;97936.93;107288;1275;22540;-80
2023/09/14 04:58:27;;;;;;;10.80;9.60;;;;;;;17.40;100.00;97937.84;107144;1275;22578;-80
2023/09/14 05:00:55;;;;;;;10.70;9.50;;;;;;;17.40;100.00;97943.21;107268;1263;22582;-81
2023/09/14 05:03:24;;;;;;;13.10;9.80;;;;;;;17.45;100.00;97945.63;106820;1275;22524;-77
2023/09/14 05:05:54;;;;;;;11.60;10.40;;;;;;;17.50;100.00;97948.58;107196;1262;22634;-78
2023/09/14 05:08:23;;;;;;;12.30;10.80;;;;;;;17.48;100.00;97950.62;107208;1269;22540;-78
2023/09/14 05:10:53;;;;;;;11.80;10.60;;;;;;;17.47;100.00;97951.81;107125;1275;22555;-78
2023/09/14 05:13:23;;;;;;;12.90;11.60;;;;;;;17.48;100.00;97953.73;106902;1275;22573;-78
2023/09/14 05:15:51;;;;;;;12.50;11.20;;;;;;;17.46;100.00;97956.02;107204;1275;25332;-78
2023/09/14 05:18:27;;;;;;;12.80;11.00;;;;;;;17.47;100.00;97954.31;107346;1275;25344;-78
2023/09/14 05:20:55;;;;;;;11.30;10.20;;;;;;;17.50;100.00;97953.17;107202;1275;24211;-77
2023/09/14 05:23:23;;;;;;;10.50;9.50;;;;;;;17.59;100.00;97952.27;106872;1275;22760;-78
2023/09/14 05:25:52;;;;;;;16.60;12.60;;;;;;;17.69;100.00;97959.50;107210;1275;22625;-78
2023/09/14 05:28:20;;;;;;;11.80;10.50;;;;;;;17.68;100.00;97960.02;107326;1275;22584;-79
2023/09/14 05:30:48;;;;;;;11.90;10.40;;;;;;;17.64;100.00;97960.84;107289;1253;22584;-78
2023/09/14 05:33:18;;;;;;;12.60;11.30;;;;;;;17.62;100.00;97960.48;107135;1253;22536;-79
2023/09/14 05:35:48;;;;;;;13.30;11.90;;;;;;;17.58;100.00;97962.66;107157;1275;23210;-78
2023/09/14 05:38:17;;;;;;;15.10;12.00;;;;;;;17.56;100.00;97964.70;107299;1275;25608;-78
2023/09/14 05:40:46;;;;;;;12.90;11.60;;;;;;;17.53;100.00;97966.19;107264;1275;22549;-79
2023/09/14 05:43:14;;;;;;;14.10;12.50;;;;;;;17.52;100.00;97967.79;107197;1275;22589;-79
2023/09/14 05:45:42;;;;;;;14.60;13.20;;;;;;;17.48;100.00;97972.10;107223;1275;26582;-79
2023/09/14 05:48:10;;;;;;;13.80;12.30;;;;;;;17.39;100.00;97976.55;107201;1270;22539;-80
2023/09/14 05:50:41;;;;;;;12.10;11.10;;;;;;;17.31;100.00;97979.41;107244;1275;22514;-80
2023/09/14 05:53:10;;;;;;;12.10;10.20;;;;;;;17.24;100.00;97984.42;107100;1275;24228;-80
2023/09/14 05:55:38;;;;;;;12.20;8.70;;;;;;;17.20;100.00;97985.79;107636;1275;25421;-82
2023/09/14 05:58:07;;;;;;;9.10;8.20;;;;;;;17.17;100.00;97984.75;107825;1275;22607;-88
2023/09/14 06:00:36;;;;;;;11.70;8.40;;;;;;;17.13;100.00;97989.38;107619;1275;26523;-92
2023/09/14 06:03:04;;;;;;;12.60;8.70;;;;;;;17.02;100.00;97994.52;107264;1263;22549;-87
2023/09/14 06:05:33;;;;;;;9.90;8.90;;;;;;;16.96;100.00;97989.25;107264;1275;25430;-89
2023/09/14 06:08:02;;;;;;;11.30;9.60;;;;;;;16.92;100.00;97988.35;107377;1275;22582;-88
2023/09/14 06:10:31;;;;;;;11.30;8.90;;;;;;;16.92;100.00;97995.52;107375;1275;22643;-88
2023/09/14 06:13:01;;;;;;;9.70;8.20;;;;;;;16.88;100.00;97997.71;107363;1275;22584;-88
2023/09/14 06:15:30;;;;;;;11.90;9.10;;;;;;;16.85;100.00;98003.29;107447;1275;25583;-90
2023/09/14 06:17:58;;;;;;;9.30;8.40;;;;;;;16.81;100.00;98003.77;107370;1275;24347;-87
2023/09/14 06:20:27;;;;;;;10.30;8.60;;;;;;;16.77;100.00;98004.58;107329;1275;22517;-87
2023/09/14 06:22:55;;;;;;;9.40;8.00;;;;;;;16.71;100.00;98005.66;107397;1275;24514;-90
2023/09/14 06:25:23;;;;;;;7.00;6.30;;;;;;;16.62;100.00;98007.11;107485;1275;22664;-88
2023/09/14 06:27:51;;;;;;;8.80;6.70;;;;;;;16.56;100.00;98010.83;107405;1275;23421;-88
2023/09/14 06:30:19;;;;;;;10.30;6.40;;;;;;;16.51;100.00;98013.90;107386;1272;22533;-88
2023/09/14 06:32:47;;;;;;;12.40;6.50;;;;;;;16.50;100.00;98017.52;107292;1252;22534;-89
2023/09/14 06:35:16;;;;;;;7.90;6.20;;;;;;;16.49;100.00;98019.72;107412;1253;22525;-88
2023/09/14 06:37:44;;;;;;;6.90;5.80;;;;;;;16.50;100.00;98019.55;107373;1275;24380;-87
2023/09/14 06:40:14;;;;;;;7.70;5.80;;;;;;;16.47;100.00;98026.91;107346;1275;24256;-87
2023/09/14 06:42:43;;;;;;;6.30;5.20;;;;;;;16.45;100.00;98024.94;107056;1275;24412;-88
2023/09/14 06:45:11;;;;;;;8.60;5.90;;;;;;;16.46;100.00;98027.29;107230;1275;25357;-87
2023/09/14 06:47:39;;;;;;;6.70;5.90;;;;;;;16.42;100.00;98028.89;107332;1275;24225;-88
2023/09/14 06:50:08;;;;;;;7.70;6.20;;;;;;;16.38;100.00;98023.86;107685;1275;24026;-89
2023/09/14 06:52:36;;;;;;;8.90;7.70;;;;;;;16.42;100.00;98035.42;107532;1275;22616;-88
2023/09/14 06:55:04;;;;;;;10.80;9.60;;;;;;;16.44;100.00;98036.59;107298;1275;25303;-88
2023/09/14 06:57:33;;;;;;;10.40;9.20;;;;;;;16.42;100.00;98037.50;107257;1275;22472;-88
2023/09/14 07:00:07;;;;;;;13.60;12.30;;;;;;;16.42;100.00;98037.29;107428;1275;25344;-88
2023/09/14 07:02:39;;;;;;;12.90;11.40;;;;;;;16.39;100.00;98039.80;107275;1275;25452;-88
2023/09/14 07:05:11;;;;;;;11.50;10.50;;;;;;;16.37;100.00;98047.18;107013;1275;22530;-89
2023/09/14 07:07:41;;;;;;;12.00;10.90;;;;;;;16.35;100.00;98047.52;107250;1275;22526;-89
2023/09/14 07:10:09;;;;;;;12.20;11.10;;;;;;;16.33;100.00;98046.45;107260;1275;23514;-88
2023/09/14 07:12:37;;;;;;;14.20;12.70;;;;;;;16.35;100.00;98046.73;108509;1275;22596;-86
2023/09/14 07:15:06;;;;;;;14.40;13.10;;;;;;;16.38;100.00;98045.02;109359;1275;22491;-88
2023/09/14 07:17:35;;;;;;;13.10;11.90;;;;;;;16.43;100.00;98048.83;108849;1275;22553;-86
2023/09/14 07:20:05;;;;;;;11.40;10.10;;;;;;;16.49;100.00;98047.23;109626;1275;25296;-86
2023/09/14 07:22:33;;;;;;;9.10;8.20;;;;;;;16.53;100.00;98052.19;107445;1275;25233;-88
2023/09/14 07:25:02;;;;;;;8.50;6.60;;;;;;;16.55;100.00;98056.07;107354;1275;24261;-88
2023/09/14 07:27:30;;;;;;;8.20;6.70;;;;;;;16.61;100.00;98060.34;107314;1275;22996;-88
2023/09/14 07:29:58;;;;;;;7.60;5.80;;;;;;;16.66;100.00;98060.42;107065;1275;25262;-88
2023/09/14 07:32:26;;;;;;;6.40;5.80;;;;;;;16.67;100.00;98063.26;107377;1275;24718;-87
2023/09/14 07:34:57;;;;;;;9.30;5.90;;;;;;;16.67;100.00;98062.11;107454;1275;24244;-87
2023/09/14 07:37:28;;;;;;;9.50;5.50;;;;;;;16.66;100.00;98064.79;107473;1273;23446;-88
2023/09/14 07:39:56;;;;;;;8.60;5.70;;;;;;;16.68;100.00;98066.73;107348;1275;26577;-88
2023/09/14 07:42:25;;;;;;;9.60;6.10;;;;;;;16.66;100.00;98059.27;107385;1275;22486;-89
2023/09/14 07:44:53;;;;;;;6.40;5.10;;;;;;;16.79;100.00;98066.83;107371;1275;22524;-89
2023/09/14 07:47:28;;;;;;;7.00;4.80;;;;;;;16.80;100.00;98066.57;107432;1275;22531;-87
2023/09/14 07:49:57;;;;;;;7.50;4.80;;;;;;;16.84;100.00;98073.45;107279;1275;23877;-88
2023/09/14 07:52:25;;;;;;;8.40;5.10;;;;;;;16.85;100.00;98075.73;107447;1275;23360;-88
2023/09/14 07:54:54;;;;;;;6.10;4.70;;;;;;;16.86;100.00;98080.60;107431;1275;22560;-88
2023/09/14 07:57:22;;;;;;;6.10;4.60;;;;;;;16.84;100.00;98084.10;107254;1275;23869;-89
2023/09/14 07:59:51;;;;;;;9.10;5.00;;;;;;;16.85;100.00;98084.00;107305;1275;25526;-82
2023/09/14 08:02:19;;;;;;;7.80;5.10;;;;;;;16.90;100.00;98089.52;107420;1275;22543;-83
2023/09/14 08:04:48;;;;;;;6.60;5.50;;;;;;;17.00;100.00;98088.17;107351;1275;22551;-83
2023/09/14 08:07:16;;;;;;;8.80;5.40;;;;;;;17.22;100.00;98090.78;107354;1275;22720;-83
2023/09/14 08:09:45;;;;;;;10.40;5.60;;;;;;;17.36;100.00;98094.70;107595;1270;23309;-83
2023/09/14 08:12:13;;;;;;;7.10;5.20;;;;;;;17.40;100.00;98092.63;107666;1275;22669;-83
2023/09/14 08:14:41;;;;;;;8.30;6.00;;;;;;;17.45;100.00;98094.84;107461;1275;23207;-82
2023/09/14 08:17:11;;;;;;;7.20;6.00;;;;;;;17.39;100.00;98098.83;107206;1275;25496;-82
2023/09/14 08:19:39;;;;;;;10.10;7.70;;;;;;;17.45;100.00;98099.65;107235;1275;22643;-83
2023/09/14 08:22:07;;;;;;;8.80;7.90;;;;;;;17.58;100.00;98103.09;107437;1269;24523;-82
2023/09/14 08:24:35;;;;;;;9.40;7.30;;;;;;;17.70;100.00;98104.66;107446;1273;22637;-81
2023/09/14 08:27:03;;;;;;;11.40;7.40;;;;;;;17.75;100.00;98110.03;107306;1275;25215;-83
2023/09/14 08:29:31;;;;;;;8.80;5.90;;;;;;;17.78;100.00;98108.13;107294;1275;24240;-82
2023/09/14 08:31:59;;;;;;;8.10;4.30;;;;;;;17.84;100.00;98116.10;107258;1267;22720;-83
2023/09/14 08:34:28;;;;;;;5.10;4.40;;;;;;;17.84;100.00;98114.42;107309;1267;22586;-83
2023/09/14 08:36:56;;;;;;;6.50;4.10;;;;;;;17.85;100.00;98114.35;107455;1275;24383;-82
2023/09/14 08:39:24;;;;;;;5.00;4.50;;;;;;;17.84;100.00;98119.39;107392;1264;23111;-83
2023/09/14 08:41:52;;;;;;;4.80;4.30;;;;;;;17.77;100.00;98120.61;107277;1275;24222;-83
2023/09/14 08:44:22;;;;;;;6.10;4.20;;;;;;;17.76;100.00;98121.11;107419;1267;25642;-82
2023/09/14 08:46:53;;;;;;;6.20;4.80;;;;;;;17.78;100.00;98127.45;107395;1275;23996;-82
2023/09/14 08:49:24;;;;;;;5.90;4.90;;;;;;;17.74;100.00;98125.48;107265;1275;23264;-82
2023/09/14 08:51:55;;;;;;;6.00;5.40;;;;;;;17.74;100.00;98130.70;107337;1273;25281;-81
2023/09/14 08:54:23;;;;;;;6.00;5.40;;;;;;;17.72;100.00;98130.80;107259;1274;23487;-82
2023/09/14 08:56:52;;;;;;;7.00;5.40;;;;;;;17.76;100.00;98133.81;107303;1267;22536;-83
2023/09/14 08:59:23;;;;;;;6.60;4.90;;;;;;;17.79;100.00;98134.42;107409;1275;23128;-81
2023/09/14 09:01:52;;;;;;;6.10;4.40;;;;;;;17.87;100.00;98132.18;107454;1275;24384;-81
2023/09/14 09:04:21;;;;;;;7.50;4.30;;;;;;;17.87;100.00;98133.18;107329;1275;24218;-81
2023/09/14 09:06:49;;;;;;;6.30;4.30;;;;;;;17.81;100.00;98134.56;107310;1255;22572;-82
2023/09/14 09:09:19;;;;;;;5.90;4.50;;;;;;;17.76;100.00;98138.65;107400;1270;25332;-80
2023/09/14 09:11:47;;;;;;;6.60;4.70;;;;;;;17.74;100.00;98135.94;107189;1275;22535;-83
2023/09/14 09:14:15;;;;;;;7.80;6.40;;;;;;;17.69;100.00;98138.05;107198;1270;22531;-81
2023/09/14 09:16:43;;;;;;;7.30;4.50;;;;;;;17.65;100.00;98141.27;107207;1275;22699;-81
2023/09/14 09:19:12;;;;;;;4.90;4.40;;;;;;;17.76;100.00;98143.80;107305;1275;22554;-80
2023/09/14 09:21:41;;;;;;;6.10;4.60;;;;;;;17.85;100.00;98145.06;107339;1267;24215;-81
2023/09/14 09:24:13;;;;;;;9.90;4.40;;;;;;;17.86;100.00;98142.90;107347;1275;22578;-80
2023/09/14 09:26:42;;;;;;;16.90;5.30;;;;;;;17.86;100.00;98138.29;107302;1259;22571;-80
2023/09/14 09:29:17;;;;;;;5.70;5.00;;;;;;;17.87;100.00;98142.08;107646;1275;24505;-80
2023/09/14 09:31:52;;;;;;;8.40;5.50;;;;;;;17.85;100.00;98139.65;107312;1275;25304;-81
2023/09/14 09:34:24;;;;;;;5.30;4.70;;;;;;;17.84;100.00;98142.28;107294;1254;24376;-81
2023/09/14 09:36:55;;;;;;;5.30;4.80;;;;;;;17.94;100.00;98145.40;107178;1275;22662;-82
2023/09/14 09:39:24;;;;;;;8.60;5.30;;;;;;;18.01;100.00;98146.94;107043;1273;22530;-81
2023/09/14 09:41:52;;;;;;;6.60;5.70;;;;;;;18.10;100.00;98145.92;107459;1275;22640;-80
2023/09/14 09:44:27;;;;;;;7.80;7.10;;;;;;;18.14;100.00;98145.11;107283;1273;22567;-81
2023/09/14 09:46:58;;;;;;;8.10;6.90;;;;;;;18.12;100.00;98146.98;107346;1275;22586;-81
2023/09/14 09:49:29;;;;;;;7.20;5.80;;;;;;;18.11;100.00;98146.16;107326;1275;24088;-81
2023/09/14 09:51:57;;;;;;;9.00;6.30;;;;;;;18.07;100.00;98150.86;107273;1274;22538;-81
2023/09/14 09:54:27;;;;;;;9.70;6.60;;;;;;;18.06;100.00;98147.89;107384;1267;25554;-82
2023/09/14 09:56:56;;;;;;;8.10;7.30;;;;;;;18.14;100.00;98149.92;107328;1275;22629;-81
2023/09/14 09:59:26;;;;;;;8.70;7.90;;;;;;;18.22;100.00;98149.10;107250;1270;24205;-80
2023/09/14 10:01:55;;;;;;;8.30;7.30;;;;;;;18.21;100.00;98149.75;107427;1275;22528;-80
2023/09/14 10:04:28;;;;;;;8.10;7.30;;;;;;;18.28;100.00;98150.75;107375;1275;22567;-80
2023/09/14 10:06:59;;;;;;;13.90;7.80;;;;;;;18.41;100.00;98148.16;107207;1275;22517;-80
2023/09/14 10:09:34;;;;;;;8.70;7.80;;;;;;;18.49;100.00;98152.55;107299;1275;24253;-81
2023/09/14 10:12:03;;;;;;;8.60;7.80;;;;;;;18.52;100.00;98143.21;107381;1271;23142;-79
2023/09/14 10:14:34;;;;;;;7.90;6.70;;;;;;;18.68;99.88;98141.46;106956;1275;24314;-79
2023/09/14 10:17:06;;;;;;;8.90;8.10;;;;;;;18.80;99.21;98144.21;107380;1267;24337;-81
2023/09/14 10:19:39;;;;;;;9.60;7.60;;;;;;;18.80;98.41;98142.48;107216;1267;24215;-81
2023/09/14 10:22:09;;;;;;;8.60;7.60;;;;;;;18.86;97.57;98142.25;107330;1275;22547;-80
2023/09/14 10:24:37;;;;;;;7.60;6.90;;;;;;;18.77;96.64;98145.60;107028;1267;25344;-80
2023/09/14 10:27:08;;;;;;;8.20;7.30;;;;;;;18.72;96.86;98149.72;107289;1254;25661;-80
2023/09/14 10:29:42;;;;;;;10.40;7.70;;;;;;;18.64;96.89;98152.77;107317;1268;22564;-80
2023/09/14 10:32:11;;;;;;;9.70;8.40;;;;;;;18.64;97.07;98150.09;107246;1275;22560;-81
2023/09/14 10:34:41;;;;;;;8.00;7.00;;;;;;;18.59;96.69;98146.91;107385;1275;22518;-79
2023/09/14 10:37:24;;;;;;;8.80;7.20;;;;;;;18.48;97.08;98152.66;107236;1275;25281;-80
2023/09/14 10:39:54;;;;;;;7.60;6.70;;;;;;;18.44;97.68;98152.23;107022;1274;24559;-79
2023/09/14 10:42:22;;;;;;;9.40;7.10;;;;;;;18.42;97.90;98155.54;107177;1270;22577;-79
2023/09/14 10:44:51;;;;;;;8.30;6.10;;;;;;;18.47;98.18;98150.67;107164;1270;22535;-80
2023/09/14 10:47:23;;;;;;;7.40;6.30;;;;;;;18.60;98.50;98147.17;107291;1275;25278;-80
2023/09/14 10:49:52;;;;;;;6.90;5.80;;;;;;;18.70;98.15;98145.83;107341;1267;23285;-81
2023/09/14 10:52:24;;;;;;;6.10;5.40;;;;;;;18.89;98.56;98149.58;107298;1275;22543;-82
2023/09/14 10:54:54;;;;;;;7.50;6.00;;;;;;;19.16;96.60;98148.92;107796;1272;24357;-83
2023/09/14 10:57:24;;;;;;;7.90;7.10;;;;;;;19.30;95.94;98145.48;108441;1275;23505;-82
2023/09/14 11:00:01;;;;;;;7.70;6.70;;;;;;;19.33;92.10;98145.48;107476;1275;24337;-77
2023/09/14 11:02:54;;;;;;;9.10;8.10;;;;;;;19.30;93.45;98148.59;107665;1267;22763;-80
2023/09/14 11:05:48;;;;;;;9.10;8.20;;;;;;;19.30;91.64;98151.23;107313;1275;25372;-82
2023/09/14 11:08:20;;;;;;;10.30;9.40;;;;;;;19.24;90.48;98148.36;107354;1275;25297;-81
2023/09/14 11:10:54;;;;;;;10.30;9.30;;;;;;;19.32;89.70;98156.92;107189;1274;24206;-77
2023/09/14 11:13:25;;;;;;;10.50;9.50;;;;;;;19.40;89.56;98152.05;106943;1275;24956;-79
2023/09/14 11:15:54;;;;;;;10.20;9.10;;;;;;;19.67;89.32;98153.70;107295;1272;22552;-79
2023/09/14 11:18:51;;;;;;;9.70;8.80;;;;;;;19.83;88.20;98155.91;107103;1275;24279;-79
2023/09/14 11:21:31;;;;;;;10.10;9.10;;;;;;;19.88;87.53;98152.21;107244;1270;22581;-79
2023/09/14 11:24:05;;;;;;;10.30;8.10;;;;;;;19.86;87.52;98154.27;107449;1273;22731;-80
2023/09/14 11:26:42;;;;;;;7.50;6.80;;;;;;;19.88;87.50;98155.50;106949;1275;24307;-79